createdAt,value
2024-01-05T00:03:53.320Z,3.28
2024-01-05T00:08:55.571Z,3.70
2024-01-05T00:13:57.607Z,3.60
2024-01-05T00:19:00.425Z,3.83
2024-01-05T00:24:02.727Z,3.35
2024-01-05T00:29:04.692Z,3.53
2024-01-05T00:34:06.899Z,3.55
2024-01-05T00:39:09.282Z,3.05
2024-01-05T00:44:11.428Z,3.97
2024-01-05T00:49:13.423Z,3.33
2024-01-05T00:54:15.565Z,3.63
2024-01-05T00:59:20.402Z,3.85
2024-01-05T01:04:23.001Z,3.53
2024-01-05T01:09:25.471Z,3.65
2024-01-05T01:14:27.418Z,3.38
2024-01-05T01:19:29.545Z,4.15
2024-01-05T01:24:31.692Z,3.40
2024-01-05T01:29:33.641Z,4.40
2024-01-05T01:34:35.604Z,4.15
2024-01-05T01:39:38.016Z,3.63
2024-01-05T01:44:40.068Z,4.07
2024-01-05T01:49:42.327Z,3.47
2024-01-05T01:54:46.376Z,3.92
2024-01-05T01:59:48.785Z,4.25
2024-01-05T02:04:53.028Z,4.78
2024-01-05T02:09:55.327Z,4.43
2024-01-05T02:14:57.204Z,4.28
2024-01-05T02:19:59.665Z,4.65
2024-01-05T02:25:03.215Z,6.20
2024-01-05T02:30:05.801Z,4.72
2024-01-05T02:35:08.395Z,4.55
2024-01-05T02:40:12.880Z,3.90
2024-01-05T02:45:14.993Z,4.10
2024-01-05T02:50:17.555Z,3.95
2024-01-05T02:55:19.593Z,5.25
2024-01-05T03:00:21.802Z,4.55
2024-01-05T03:05:24.139Z,4.22
2024-01-05T03:10:26.477Z,3.60
2024-01-05T03:15:28.404Z,3.53
2024-01-05T03:20:30.408Z,3.10
2024-01-05T03:25:33.417Z,3.17
2024-01-05T03:30:35.672Z,3.47
2024-01-05T03:35:39.096Z,2.90
2024-01-05T03:40:41.053Z,3.25
2024-01-05T03:45:43.205Z,2.90
2024-01-05T03:50:45.227Z,2.85
2024-01-05T03:55:47.158Z,2.95
2024-01-05T04:00:49.433Z,2.83
2024-01-05T04:05:51.659Z,3.13
2024-01-05T04:10:53.878Z,2.50
2024-01-05T04:15:55.892Z,2.53
2024-01-05T04:20:58.282Z,2.03
2024-01-05T04:26:00.396Z,1.98
2024-01-05T04:31:02.610Z,1.90
2024-01-05T04:36:05.107Z,1.60
2024-01-05T04:41:07.408Z,1.25
2024-01-05T04:46:09.528Z,1.45
2024-01-05T04:51:11.932Z,1.48
2024-01-05T04:56:14.230Z,1.00
2024-01-05T05:01:16.702Z,0.73
2024-01-05T05:06:18.904Z,1.73
2024-01-05T05:11:21.719Z,1.58
2024-01-05T05:16:23.646Z,1.73
2024-01-05T05:21:27.060Z,1.40
2024-01-05T05:26:29.342Z,1.38
2024-01-05T05:31:31.847Z,1.52
2024-01-05T05:36:34.107Z,1.67
2024-01-05T05:41:36.178Z,1.60
2024-01-05T05:46:38.405Z,2.22
2024-01-05T05:51:40.852Z,1.65
2024-01-05T05:56:43.139Z,1.95
2024-01-05T06:01:47.102Z,2.63
2024-01-05T06:06:49.281Z,2.38
2024-01-05T06:11:51.540Z,1.80
2024-01-05T06:16:53.623Z,2.25
2024-01-05T06:21:55.895Z,2.33
2024-01-05T06:26:58.068Z,1.65
2024-01-05T06:32:01.278Z,1.67
2024-01-05T06:37:03.357Z,1.60
2024-01-05T06:42:08.262Z,1.60
2024-01-05T06:47:11.251Z,2.00
2024-01-05T06:52:13.273Z,1.90
2024-01-05T06:57:15.646Z,2.42
2024-01-05T07:02:18.157Z,1.88
2024-01-05T07:07:20.110Z,1.90
2024-01-05T07:12:22.330Z,2.38
2024-01-05T07:17:24.463Z,1.88
2024-01-05T07:22:26.517Z,1.90
2024-01-05T07:27:28.642Z,1.90
2024-01-05T07:32:30.664Z,1.98
2024-01-05T07:37:32.891Z,2.00
2024-01-05T07:42:35.079Z,1.70
2024-01-05T07:47:37.369Z,1.58
2024-01-05T07:52:39.769Z,1.85
2024-01-05T07:57:43.213Z,1.73
2024-01-05T08:02:46.605Z,1.95
2024-01-05T08:07:48.947Z,3.05
2024-01-05T08:12:51.053Z,4.00
2024-01-05T08:17:53.310Z,2.92
2024-01-05T08:22:55.482Z,3.33
2024-01-05T08:27:57.727Z,2.30
2024-01-05T08:33:00.192Z,2.15
2024-01-05T08:38:03.773Z,2.63
2024-01-05T08:43:05.995Z,3.67
2024-01-05T08:48:08.299Z,3.55
2024-01-05T08:53:10.725Z,2.20
2024-01-05T08:58:12.820Z,1.33
2024-01-05T09:03:15.306Z,1.48
2024-01-05T09:08:17.565Z,1.70
2024-01-05T09:13:19.584Z,2.92
2024-01-05T09:18:21.899Z,3.50
2024-01-05T09:23:24.174Z,2.88
2024-01-05T09:28:26.394Z,2.38
2024-01-05T09:33:28.654Z,2.55
2024-01-05T09:38:31.459Z,1.50
2024-01-05T09:43:33.570Z,1.48
2024-01-05T09:48:43.380Z,1.58
2024-01-05T09:53:50.698Z,1.13
2024-01-05T09:58:53.376Z,1.23
2024-01-05T10:04:05.255Z,1.77
2024-01-05T10:09:07.993Z,1.40
2024-01-05T10:14:15.207Z,1.27
2024-01-05T10:19:19.425Z,1.50
2024-01-05T10:24:24.718Z,1.63
2024-01-05T10:29:29.436Z,1.52
2024-01-05T10:34:36.550Z,1.83
2024-01-05T10:39:39.515Z,2.03
2024-01-05T10:44:46.660Z,2.60
2024-01-05T10:49:52.137Z,1.30
2024-01-05T10:54:55.042Z,1.90
2024-01-05T10:59:58.149Z,1.60
2024-01-05T11:05:14.128Z,1.40
2024-01-05T11:10:25.618Z,1.20
2024-01-05T11:15:52.469Z,1.30
2024-01-05T11:21:14.982Z,1.80
2024-01-05T11:26:43.881Z,1.83
2024-01-05T11:31:49.130Z,1.85
2024-01-05T11:36:51.472Z,1.63
2024-01-05T11:41:53.690Z,1.52
2024-01-05T11:46:57.229Z,1.88
2024-01-05T11:51:59.209Z,1.23
2024-01-05T11:57:03.018Z,1.25
2024-01-05T12:02:05.032Z,1.48
2024-01-05T12:07:07.034Z,1.52
2024-01-05T12:12:19.116Z,1.42
2024-01-05T12:17:21.519Z,2.35
2024-01-05T12:22:23.449Z,1.30
2024-01-05T12:27:25.408Z,1.20
2024-01-05T12:32:30.973Z,0.88
2024-01-05T12:37:33.694Z,0.93
2024-01-05T12:42:36.738Z,0.80
2024-01-05T12:47:39.067Z,1.15
2024-01-05T12:52:41.481Z,1.10
2024-01-05T12:57:43.567Z,1.10
2024-01-05T13:02:45.553Z,1.17
2024-01-05T13:07:47.818Z,0.68
2024-01-05T13:12:50.121Z,0.88
2024-01-05T13:17:53.407Z,1.02
2024-01-05T13:22:57.120Z,0.90
2024-01-05T13:27:59.806Z,0.80
2024-01-05T13:33:01.981Z,1.20
2024-01-05T13:38:05.471Z,0.93
2024-01-05T13:43:09.403Z,1.33
2024-01-05T13:48:11.476Z,1.08
2024-01-05T13:53:15.584Z,1.02
2024-01-05T13:58:17.744Z,1.20
2024-01-05T14:03:19.751Z,1.10
2024-01-05T14:08:24.005Z,1.23
2024-01-05T14:13:26.372Z,0.80
2024-01-05T14:18:28.516Z,0.90
2024-01-05T14:23:30.708Z,0.90
2024-01-05T14:28:32.680Z,0.95
2024-01-05T14:33:34.680Z,2.22
2024-01-05T14:38:39.405Z,1.23
2024-01-05T14:43:41.430Z,1.30
2024-01-05T14:48:45.313Z,1.23
2024-01-05T14:53:47.273Z,1.75
2024-01-05T14:58:51.416Z,1.10
2024-01-05T15:03:53.945Z,1.00
2024-01-05T15:08:56.631Z,3.05
2024-01-05T15:13:58.496Z,2.00
2024-01-05T15:19:00.993Z,1.60
2024-01-05T15:24:04.617Z,1.50
2024-01-05T15:29:06.989Z,1.50
2024-01-05T15:34:09.186Z,2.15
2024-01-05T15:39:11.634Z,2.15
2024-01-05T15:44:13.716Z,2.92
2024-01-05T15:49:15.827Z,2.33
2024-01-05T15:54:18.664Z,2.63
2024-01-05T15:59:20.826Z,1.70
2024-01-05T16:04:23.919Z,1.95
2024-01-05T16:09:25.888Z,1.50
2024-01-05T16:14:27.871Z,1.40
2024-01-05T16:19:29.863Z,1.77
2024-01-05T16:24:31.973Z,1.63
2024-01-05T16:29:35.002Z,1.90
2024-01-05T16:34:37.217Z,1.10
2024-01-05T16:39:40.592Z,2.20
2024-01-05T16:44:45.100Z,1.70
2024-01-05T16:49:47.261Z,1.77
2024-01-05T16:54:49.433Z,1.40
2024-01-05T16:59:51.704Z,1.90
2024-01-05T17:04:54.478Z,2.15
2024-01-05T17:09:56.754Z,1.83
2024-01-05T17:14:58.960Z,1.80
2024-01-05T17:20:16.418Z,1.50
2024-01-05T17:25:23.458Z,1.40
2024-01-05T17:30:26.152Z,1.92
2024-01-05T17:35:28.117Z,2.35
2024-01-05T17:40:30.049Z,2.55
2024-01-05T17:45:32.012Z,3.13
2024-01-05T17:50:34.183Z,2.20
2024-01-05T17:55:36.495Z,1.50
2024-01-05T18:00:38.739Z,2.90
2024-01-05T18:05:41.189Z,2.45
2024-01-05T18:10:43.396Z,2.75
2024-01-05T18:15:45.277Z,2.53
2024-01-05T18:20:47.336Z,2.10
2024-01-05T18:25:49.658Z,2.78
2024-01-05T18:30:51.767Z,3.70
2024-01-05T18:35:55.212Z,4.65
2024-01-05T18:40:57.304Z,3.35
2024-01-05T18:45:59.571Z,3.78
2024-01-05T18:51:02.078Z,3.13
2024-01-05T18:56:07.621Z,3.30
2024-01-05T19:01:11.879Z,2.75
2024-01-05T19:06:18.557Z,2.75
2024-01-05T19:11:21.345Z,3.67
2024-01-05T19:16:24.097Z,4.63
2024-01-05T19:21:26.027Z,4.68
2024-01-05T19:26:28.081Z,4.15
2024-01-05T19:31:30.173Z,4.25
2024-01-05T19:36:33.351Z,4.25
2024-01-05T19:41:35.316Z,3.15
2024-01-05T19:46:39.299Z,3.15
2024-01-05T19:51:49.123Z,2.75
2024-01-05T19:56:52.239Z,2.55
2024-01-05T20:01:54.218Z,2.35
2024-01-05T20:06:56.259Z,3.53
2024-01-05T20:11:58.196Z,3.05
2024-01-05T20:17:01.247Z,3.28
2024-01-05T20:22:06.602Z,4.07
2024-01-05T20:27:10.489Z,3.28
2024-01-05T20:32:12.648Z,2.70
2024-01-05T20:37:14.618Z,2.67
2024-01-05T20:42:16.575Z,3.15
2024-01-05T20:47:18.661Z,3.30
2024-01-05T20:52:20.741Z,2.58
2024-01-05T20:57:22.745Z,3.10
2024-01-05T21:02:24.655Z,9.02
2024-01-05T21:07:27.019Z,8.27
2024-01-05T21:12:28.971Z,5.10
2024-01-05T21:17:31.167Z,4.35
2024-01-05T21:22:33.315Z,5.78
2024-01-05T21:27:35.368Z,3.50
2024-01-05T21:32:37.392Z,6.20
2024-01-05T21:37:39.995Z,4.35
2024-01-05T21:42:42.077Z,3.20
2024-01-05T21:47:44.076Z,3.15
2024-01-05T21:52:46.004Z,3.38
2024-01-05T21:57:47.856Z,3.75
2024-01-05T22:02:50.912Z,1.92
2024-01-05T22:07:53.560Z,1.85
2024-01-05T22:12:55.793Z,2.15
2024-01-05T22:17:57.864Z,1.73
2024-01-05T22:23:00.289Z,1.40
2024-01-05T22:28:02.241Z,1.63
2024-01-05T22:33:04.435Z,1.90
2024-01-05T22:38:06.581Z,1.55
2024-01-05T22:43:08.477Z,2.10
2024-01-05T22:48:10.526Z,2.17
2024-01-05T22:53:12.523Z,1.60
2024-01-05T22:58:14.360Z,1.42
2024-01-05T23:03:16.296Z,1.55
2024-01-05T23:08:21.899Z,1.55
2024-01-05T23:13:25.161Z,1.50
2024-01-05T23:18:27.841Z,1.20
2024-01-05T23:23:30.889Z,1.63
2024-01-05T23:28:32.898Z,1.50
2024-01-05T23:33:35.183Z,2.20
2024-01-05T23:38:37.838Z,2.80
2024-01-05T23:43:39.895Z,2.40
2024-01-05T23:48:43.599Z,2.67
2024-01-05T23:53:45.611Z,3.53
2024-01-05T23:58:47.733Z,6.93
